sensor_id;sensor_type;location;lat;lon;timestamp;pressure;altitude;pressure_sealevel;temperature;humidity
73821;BME280;62150;43.582;1.456;2023-03-23T04:32:51;99546.22;;;15.79;100.00
73821;BME280;62150;43.582;1.456;2023-03-23T04:35:23;99548.19;;;16.12;100.00
73821;BME280;62150;43.582;1.456;2023-03-23T04:37:52;99553.63;;;15.96;100.00
73821;BME280;62150;43.582;1.456;2023-03-23T04:40:20;99561.94;;;15.89;100.00
73821;BME280;62150;43.582;1.456;2023-03-23T04:42:49;99568.28;;;16.21;100.00
73821;BME280;62150;43.582;1.456;2023-03-23T04:45:20;99576.28;;;15.43;100.00
73821;BME280;62150;43.582;1.456;2023-03-23T04:47:50;99577.94;;;16.06;100.00
73821;BME280;62150;43.582;1.456;2023-03-23T04:50:23;99586.75;;;16.17;100.00
73821;BME280;62150;43.582;1.456;2023-03-23T04:52:52;99588.00;;;15.98;100.00
73821;BME280;62150;43.582;1.456;2023-03-23T04:55:24;99591.22;;;16.02;100.00
73821;BME280;62150;43.582;1.456;2023-03-23T04:57:52;99591.53;;;15.97;100.00
73821;BME280;62150;43.582;1.456;2023-03-23T05:00:20;99599.19;;;16.12;100.00
73821;BME280;62150;43.582;1.456;2023-03-23T05:02:50;99595.38;;;16.04;100.00
73821;BME280;62150;43.582;1.456;2023-03-23T05:05:19;99597.63;;;16.46;100.00
73821;BME280;62150;43.582;1.456;2023-03-23T05:07:47;99603.91;;;15.94;100.00
73821;BME280;62150;43.582;1.456;2023-03-23T05:10:16;99601.53;;;15.78;100.00
73821;BME280;62150;43.582;1.456;2023-03-23T05:12:43;99600.19;;;16.22;100.00
73821;BME280;62150;43.582;1.456;2023-03-23T05:15:12;99601.13;;;15.84;100.00
73821;BME280;62150;43.582;1.456;2023-03-23T05:17:40;99603.72;;;16.21;100.00
73821;BME280;62150;43.582;1.456;2023-03-23T05:20:13;99606.75;;;16.15;100.00
73821;BME280;62150;43.582;1.456;2023-03-23T05:22:44;99612.56;;;16.05;100.00
73821;BME280;62150;43.582;1.456;2023-03-23T05:25:14;99613.00;;;15.99;100.00
73821;BME280;62150;43.582;1.456;2023-03-23T05:27:41;99619.06;;;16.24;100.00
73821;BME280;62150;43.582;1.456;2023-03-23T05:30:14;99619.84;;;16.00;100.00
73821;BME280;62150;43.582;1.456;2023-03-23T05:32:45;99622.31;;;16.02;100.00
73821;BME280;62150;43.582;1.456;2023-03-23T05:35:18;99618.19;;;15.99;100.00
73821;BME280;62150;43.582;1.456;2023-03-23T05:37:46;99618.31;;;15.72;100.00
73821;BME280;62150;43.582;1.456;2023-03-23T05:40:14;99613.41;;;16.06;100.00
73821;BME280;62150;43.582;1.456;2023-03-23T05:42:42;99612.09;;;15.88;100.00
73821;BME280;62150;43.582;1.456;2023-03-23T05:45:11;99615.78;;;16.09;100.00
73821;BME280;62150;43.582;1.456;2023-03-23T05:47:39;99612.53;;;15.69;100.00
73821;BME280;62150;43.582;1.456;2023-03-23T05:50:09;99621.94;;;15.70;100.00
73821;BME280;62150;43.582;1.456;2023-03-23T05:52:38;99608.13;;;15.95;100.00
73821;BME280;62150;43.582;1.456;2023-03-23T05:55:07;99623.28;;;15.63;100.00
73821;BME280;62150;43.582;1.456;2023-03-23T05:57:35;99630.75;;;15.67;100.00
73821;BME280;62150;43.582;1.456;2023-03-23T06:00:04;99623.41;;;15.87;100.00
73821;BME280;62150;43.582;1.456;2023-03-23T06:02:37;99623.09;;;15.66;100.00
73821;BME280;62150;43.582;1.456;2023-03-23T06:05:06;99619.88;;;15.88;100.00
73821;BME280;62150;43.582;1.456;2023-03-23T06:07:34;99622.47;;;15.75;100.00
73821;BME280;62150;43.582;1.456;2023-03-23T06:10:04;99621.44;;;15.78;100.00
73821;BME280;62150;43.582;1.456;2023-03-23T06:12:33;99624.34;;;15.73;100.00
73821;BME280;62150;43.582;1.456;2023-03-23T06:15:00;99630.53;;;15.83;100.00
73821;BME280;62150;43.582;1.456;2023-03-23T06:17:28;99628.56;;;15.87;100.00
73821;BME280;62150;43.582;1.456;2023-03-23T06:19:56;99636.88;;;15.92;100.00
73821;BME280;62150;43.582;1.456;2023-03-23T06:22:24;99638.00;;;15.75;100.00
73821;BME280;62150;43.582;1.456;2023-03-23T06:24:52;99638.09;;;15.86;100.00
73821;BME280;62150;43.582;1.456;2023-03-23T06:27:21;99642.25;;;15.63;100.00
73821;BME280;62150;43.582;1.456;2023-03-23T06:29:48;99654.66;;;15.96;100.00
73821;BME280;62150;43.582;1.456;2023-03-23T06:32:16;99655.72;;;16.30;100.00
73821;BME280;62150;43.582;1.456;2023-03-23T06:34:44;99669.19;;;16.35;100.00
73821;BME280;62150;43.582;1.456;2023-03-23T06:37:13;99669.13;;;16.24;100.00
73821;BME280;62150;43.582;1.456;2023-03-23T06:39:42;99681.53;;;16.45;100.00
73821;BME280;62150;43.582;1.456;2023-03-23T06:42:10;99679.13;;;16.54;100.00
73821;BME280;62150;43.582;1.456;2023-03-23T06:44:39;99679.88;;;16.80;100.00
73821;BME280;62150;43.582;1.456;2023-03-23T06:47:07;99684.53;;;16.99;100.00
73821;BME280;62150;43.582;1.456;2023-03-23T06:49:35;99682.59;;;16.66;100.00
73821;BME280;62150;43.582;1.456;2023-03-23T06:52:02;99693.75;;;16.55;100.00
73821;BME280;62150;43.582;1.456;2023-03-23T06:54:32;99687.25;;;16.73;100.00
73821;BME280;62150;43.582;1.456;2023-03-23T06:56:59;99701.44;;;16.81;100.00
73821;BME280;62150;43.582;1.456;2023-03-23T06:59:27;99694.59;;;16.80;100.00
73821;BME280;62150;43.582;1.456;2023-03-23T07:01:56;99697.28;;;17.02;100.00
73821;BME280;62150;43.582;1.456;2023-03-23T07:04:24;99708.44;;;17.15;100.00
73821;BME280;62150;43.582;1.456;2023-03-23T07:06:51;99711.47;;;16.98;100.00
73821;BME280;62150;43.582;1.456;2023-03-23T07:09:19;99714.00;;;17.57;100.00
73821;BME280;62150;43.582;1.456;2023-03-23T07:11:46;99714.84;;;16.98;100.00
73821;BME280;62150;43.582;1.456;2023-03-23T07:14:14;99716.59;;;16.87;100.00
73821;BME280;62150;43.582;1.456;2023-03-23T07:16:42;99713.81;;;17.36;100.00
73821;BME280;62150;43.582;1.456;2023-03-23T07:19:11;99713.16;;;17.10;100.00
73821;BME280;62150;43.582;1.456;2023-03-23T07:21:38;99708.47;;;16.91;100.00
73821;BME280;62150;43.582;1.456;2023-03-23T07:24:09;99724.78;;;17.04;100.00
73821;BME280;62150;43.582;1.456;2023-03-23T07:26:37;99716.75;;;16.96;100.00
73821;BME280;62150;43.582;1.456;2023-03-23T07:29:05;99723.22;;;16.91;100.00
73821;BME280;62150;43.582;1.456;2023-03-23T07:31:32;99717.44;;;17.57;100.00
73821;BME280;62150;43.582;1.456;2023-03-23T07:34:00;99724.75;;;17.52;100.00
73821;BME280;62150;43.582;1.456;2023-03-23T07:36:30;99736.06;;;17.16;100.00
73821;BME280;62150;43.582;1.456;2023-03-23T07:38:58;99734.25;;;17.29;100.00
73821;BME280;62150;43.582;1.456;2023-03-23T07:41:26;99734.81;;;17.33;100.00
73821;BME280;62150;43.582;1.456;2023-03-23T07:43:54;99744.41;;;17.67;100.00
73821;BME280;62150;43.582;1.456;2023-03-23T07:46:22;99739.44;;;17.05;100.00
73821;BME280;62150;43.582;1.456;2023-03-23T07:48:49;99739.94;;;17.11;100.00
73821;BME280;62150;43.582;1.456;2023-03-23T07:51:17;99740.00;;;17.33;100.00
73821;BME280;62150;43.582;1.456;2023-03-23T07:53:46;99754.16;;;17.05;100.00
73821;BME280;62150;43.582;1.456;2023-03-23T07:56:14;99742.50;;;17.69;100.00
73821;BME280;62150;43.582;1.456;2023-03-23T07:58:45;99740.84;;;17.33;100.00
73821;BME280;62150;43.582;1.456;2023-03-23T08:01:12;99740.72;;;17.59;100.00
73821;BME280;62150;43.582;1.456;2023-03-23T08:03:40;99738.69;;;17.97;100.00
73821;BME280;62150;43.582;1.456;2023-03-23T08:06:08;99737.56;;;17.66;100.00
73821;BME280;62150;43.582;1.456;2023-03-23T08:08:36;99741.13;;;17.65;100.00
73821;BME280;62150;43.582;1.456;2023-03-23T08:11:05;99743.34;;;17.70;100.00
73821;BME280;62150;43.582;1.456;2023-03-23T08:13:33;99741.75;;;17.91;100.00
73821;BME280;62150;43.582;1.456;2023-03-23T08:16:01;99739.50;;;17.87;100.00
73821;BME280;62150;43.582;1.456;2023-03-23T08:18:30;99721.44;;;18.07;100.00
73821;BME280;62150;43.582;1.456;2023-03-23T08:20:57;99715.75;;;18.02;100.00
73821;BME280;62150;43.582;1.456;2023-03-23T08:23:25;99724.28;;;18.27;100.00
73821;BME280;62150;43.582;1.456;2023-03-23T08:25:53;99722.81;;;17.78;100.00
73821;BME280;62150;43.582;1.456;2023-03-23T08:28:22;99712.44;;;17.89;100.00
73821;BME280;62150;43.582;1.456;2023-03-23T08:30:49;99719.03;;;17.82;100.00
73821;BME280;62150;43.582;1.456;2023-03-23T08:33:17;99723.31;;;17.83;100.00
73821;BME280;62150;43.582;1.456;2023-03-23T08:35:55;99721.44;;;18.07;100.00
73821;BME280;62150;43.582;1.456;2023-03-23T08:38:23;99723.06;;;18.08;100.00
73821;BME280;62150;43.582;1.456;2023-03-23T08:40:51;99728.63;;;18.37;100.00
73821;BME280;62150;43.582;1.456;2023-03-23T08:43:21;99733.44;;;18.75;100.00
73821;BME280;62150;43.582;1.456;2023-03-23T08:45:50;99733.81;;;19.14;100.00
73821;BME280;62150;43.582;1.456;2023-03-23T08:48:19;99732.25;;;19.55;100.00
73821;BME280;62150;43.582;1.456;2023-03-23T08:50:46;99737.22;;;19.47;100.00
73821;BME280;62150;43.582;1.456;2023-03-23T08:53:14;99734.03;;;19.43;100.00
73821;BME280;62150;43.582;1.456;2023-03-23T08:55:42;99738.41;;;19.42;100.00
73821;BME280;62150;43.582;1.456;2023-03-23T08:58:10;99745.25;;;18.91;100.00
73821;BME280;62150;43.582;1.456;2023-03-23T09:00:39;99758.38;;;19.00;100.00
73821;BME280;62150;43.582;1.456;2023-03-23T09:03:06;99746.19;;;19.33;100.00
73821;BME280;62150;43.582;1.456;2023-03-23T09:05:34;99751.09;;;18.50;100.00
73821;BME280;62150;43.582;1.456;2023-03-23T09:08:02;99757.25;;;18.71;100.00
73821;BME280;62150;43.582;1.456;2023-03-23T09:10:30;99754.59;;;19.04;100.00
73821;BME280;62150;43.582;1.456;2023-03-23T09:12:58;99752.03;;;19.14;100.00
73821;BME280;62150;43.582;1.456;2023-03-23T09:15:25;99753.50;;;19.39;100.00
73821;BME280;62150;43.582;1.456;2023-03-23T09:17:54;99745.59;;;19.61;100.00
73821;BME280;62150;43.582;1.456;2023-03-23T09:20:25;99753.06;;;19.75;100.00
73821;BME280;62150;43.582;1.456;2023-03-23T09:22:55;99749.44;;;20.08;100.00
73821;BME280;62150;43.582;1.456;2023-03-23T09:25:25;99741.97;;;19.53;100.00
73821;BME280;62150;43.582;1.456;2023-03-23T09:27:54;99747.56;;;20.41;100.00
73821;BME280;62150;43.582;1.456;2023-03-23T09:30:23;99735.63;;;20.58;100.00
73821;BME280;62150;43.582;1.456;2023-03-23T09:32:54;99738.44;;;20.35;100.00
73821;BME280;62150;43.582;1.456;2023-03-23T09:35:22;99734.84;;;19.75;100.00
73821;BME280;62150;43.582;1.456;2023-03-23T09:37:51;99732.44;;;19.63;100.00
73821;BME280;62150;43.582;1.456;2023-03-23T09:40:22;99734.22;;;21.13;100.00
73821;BME280;62150;43.582;1.456;2023-03-23T09:43:06;99740.13;;;20.46;100.00
73821;BME280;62150;43.582;1.456;2023-03-23T09:45:41;99737.06;;;19.80;100.00
73821;BME280;62150;43.582;1.456;2023-03-23T09:48:29;99751.97;;;20.50;100.00
73821;BME280;62150;43.582;1.456;2023-03-23T09:51:02;99746.66;;;20.31;100.00
73821;BME280;62150;43.582;1.456;2023-03-23T09:53:36;99751.53;;;21.14;100.00
73821;BME280;62150;43.582;1.456;2023-03-23T09:56:11;99745.25;;;20.57;100.00
73821;BME280;62150;43.582;1.456;2023-03-23T09:58:45;99747.28;;;20.44;100.00
73821;BME280;62150;43.582;1.456;2023-03-23T10:01:19;99748.31;;;20.72;100.00
73821;BME280;62150;43.582;1.456;2023-03-23T10:03:49;99755.06;;;20.34;100.00
73821;BME280;62150;43.582;1.456;2023-03-23T10:06:20;99755.56;;;19.98;100.00
73821;BME280;62150;43.582;1.456;2023-03-23T10:08:51;99762.13;;;20.44;100.00
73821;BME280;62150;43.582;1.456;2023-03-23T10:11:27;99750.19;;;21.10;100.00
73821;BME280;62150;43.582;1.456;2023-03-23T10:14:11;99754.50;;;20.81;100.00
73821;BME280;62150;43.582;1.456;2023-03-23T10:16:48;99741.38;;;21.50;100.00
73821;BME280;62150;43.582;1.456;2023-03-23T10:19:28;99743.72;;;21.24;100.00
73821;BME280;62150;43.582;1.456;2023-03-23T10:22:00;99738.72;;;20.82;100.00
73821;BME280;62150;43.582;1.456;2023-03-23T10:24:34;99738.75;;;21.59;100.00
73821;BME280;62150;43.582;1.456;2023-03-23T10:27:10;99733.16;;;21.45;100.00
73821;BME280;62150;43.582;1.456;2023-03-23T10:29:43;99746.28;;;20.85;100.00
73821;BME280;62150;43.582;1.456;2023-03-23T10:32:16;99743.03;;;20.53;100.00
73821;BME280;62150;43.582;1.456;2023-03-23T10:34:49;99746.69;;;20.71;100.00
73821;BME280;62150;43.582;1.456;2023-03-23T10:37:23;99745.66;;;20.53;100.00
73821;BME280;62150;43.582;1.456;2023-03-23T10:39:53;99748.56;;;20.59;100.00
73821;BME280;62150;43.582;1.456;2023-03-23T10:42:26;99742.41;;;20.70;100.00
73821;BME280;62150;43.582;1.456;2023-03-23T10:44:54;99747.44;;;21.12;100.00
73821;BME280;62150;43.582;1.456;2023-03-23T10:47:24;99747.84;;;21.65;100.00
73821;BME280;62150;43.582;1.456;2023-03-23T10:49:55;99752.84;;;22.15;100.00
73821;BME280;62150;43.582;1.456;2023-03-23T10:52:29;99749.63;;;21.55;100.00
73821;BME280;62150;43.582;1.456;2023-03-23T10:55:03;99760.00;;;22.13;100.00
73821;BME280;62150;43.582;1.456;2023-03-23T10:57:33;99742.66;;;22.12;100.00
73821;BME280;62150;43.582;1.456;2023-03-23T11:00:03;99746.84;;;22.59;100.00
73821;BME280;62150;43.582;1.456;2023-03-23T11:02:38;99738.25;;;22.12;100.00
73821;BME280;62150;43.582;1.456;2023-03-23T11:05:20;99734.09;;;22.74;100.00
73821;BME280;62150;43.582;1.456;2023-03-23T11:07:51;99723.00;;;22.35;100.00
73821;BME280;62150;43.582;1.456;2023-03-23T11:10:23;99719.97;;;22.02;100.00
73821;BME280;62150;43.582;1.456;2023-03-23T11:12:52;99722.88;;;22.27;100.00
73821;BME280;62150;43.582;1.456;2023-03-23T11:15:30;99715.63;;;22.48;100.00
73821;BME280;62150;43.582;1.456;2023-03-23T11:18:00;99700.91;;;22.65;100.00
73821;BME280;62150;43.582;1.456;2023-03-23T11:20:32;99698.66;;;22.80;100.00
73821;BME280;62150;43.582;1.456;2023-03-23T11:23:07;99688.19;;;22.52;100.00
73821;BME280;62150;43.582;1.456;2023-03-23T11:25:55;99688.50;;;22.49;100.00
73821;BME280;62150;43.582;1.456;2023-03-23T11:28:29;99675.00;;;23.07;100.00
73821;BME280;62150;43.582;1.456;2023-03-23T11:30:58;99673.84;;;23.27;100.00
73821;BME280;62150;43.582;1.456;2023-03-23T11:33:30;99684.41;;;22.37;100.00
73821;BME280;62150;43.582;1.456;2023-03-23T11:35:59;99675.69;;;22.19;100.00
73821;BME280;62150;43.582;1.456;2023-03-23T11:38:27;99663.84;;;23.05;100.00
73821;BME280;62150;43.582;1.456;2023-03-23T11:40:54;99659.38;;;23.23;100.00
73821;BME280;62150;43.582;1.456;2023-03-23T11:43:23;99655.75;;;23.16;100.00
73821;BME280;62150;43.582;1.456;2023-03-23T11:46:01;99660.19;;;22.80;100.00
73821;BME280;62150;43.582;1.456;2023-03-23T11:48:37;99655.31;;;23.03;100.00
73821;BME280;62150;43.582;1.456;2023-03-23T11:51:12;99657.47;;;23.08;100.00
73821;BME280;62150;43.582;1.456;2023-03-23T11:53:48;99653.59;;;23.12;100.00
73821;BME280;62150;43.582;1.456;2023-03-23T11:56:24;99645.13;;;23.44;100.00
73821;BME280;62150;43.582;1.456;2023-03-23T11:58:54;99639.59;;;23.72;100.00
73821;BME280;62150;43.582;1.456;2023-03-23T12:01:40;99640.72;;;23.00;100.00
73821;BME280;62150;43.582;1.456;2023-03-23T12:04:40;99628.63;;;23.77;100.00
73821;BME280;62150;43.582;1.456;2023-03-23T12:10:17;99618.84;;;23.87;93.69
73821;BME280;62150;43.582;1.456;2023-03-23T12:12:52;99627.75;;;23.43;100.00
73821;BME280;62150;43.582;1.456;2023-03-23T12:15:28;99618.34;;;23.58;97.72
73821;BME280;62150;43.582;1.456;2023-03-23T12:18:05;99605.53;;;23.81;95.57
73821;BME280;62150;43.582;1.456;2023-03-23T12:20:42;99606.66;;;24.20;96.84
73821;BME280;62150;43.582;1.456;2023-03-23T12:23:22;99592.84;;;24.10;95.83
73821;BME280;62150;43.582;1.456;2023-03-23T12:29:30;99596.22;;;24.36;89.90
73821;BME280;62150;43.582;1.456;2023-03-23T12:32:21;99583.13;;;24.02;89.17
73821;BME280;62150;43.582;1.456;2023-03-23T12:34:54;99586.94;;;24.16;94.55
73821;BME280;62150;43.582;1.456;2023-03-23T12:37:37;99583.41;;;24.33;93.78
73821;BME280;62150;43.582;1.456;2023-03-23T12:40:25;99577.50;;;24.39;93.43
73821;BME280;62150;43.582;1.456;2023-03-23T12:42:59;99567.66;;;23.91;95.89
73821;BME280;62150;43.582;1.456;2023-03-23T12:45:48;99568.78;;;24.31;90.39
73821;BME280;62150;43.582;1.456;2023-03-23T12:48:20;99563.16;;;24.10;94.04
73821;BME280;62150;43.582;1.456;2023-03-23T12:51:03;99557.78;;;23.43;97.63
73821;BME280;62150;43.582;1.456;2023-03-23T12:53:41;99553.66;;;24.17;93.09
73821;BME280;62150;43.582;1.456;2023-03-23T12:56:16;99547.19;;;23.95;93.77
73821;BME280;62150;43.582;1.456;2023-03-23T12:58:46;99552.16;;;23.56;97.38
73821;BME280;62150;43.582;1.456;2023-03-23T13:01:18;99550.63;;;23.87;97.14
73821;BME280;62150;43.582;1.456;2023-03-23T13:03:52;99535.16;;;24.34;88.98
73821;BME280;62150;43.582;1.456;2023-03-23T13:06:27;99537.75;;;24.26;90.81
73821;BME280;62150;43.582;1.456;2023-03-23T13:09:00;99536.81;;;24.92;82.96
73821;BME280;62150;43.582;1.456;2023-03-23T13:11:33;99530.25;;;24.88;85.91
73821;BME280;62150;43.582;1.456;2023-03-23T13:14:10;99526.13;;;25.02;82.85
73821;BME280;62150;43.582;1.456;2023-03-23T13:16:46;99520.28;;;25.31;77.68
73821;BME280;62150;43.582;1.456;2023-03-23T13:19:22;99522.47;;;25.19;83.38
73821;BME280;62150;43.582;1.456;2023-03-23T13:21:58;99523.84;;;24.91;83.43
73821;BME280;62150;43.582;1.456;2023-03-23T13:24:31;99520.06;;;25.57;77.42
73821;BME280;62150;43.582;1.456;2023-03-23T13:27:04;99520.66;;;25.28;79.13
73821;BME280;62150;43.582;1.456;2023-03-23T13:29:33;99515.31;;;24.64;87.65
73821;BME280;62150;43.582;1.456;2023-03-23T13:32:06;99510.69;;;24.99;85.45
73821;BME280;62150;43.582;1.456;2023-03-23T13:34:38;99504.41;;;25.24;83.36
73821;BME280;62150;43.582;1.456;2023-03-23T13:37:11;99494.59;;;24.94;80.92
73821;BME280;62150;43.582;1.456;2023-03-23T13:39:51;99487.72;;;24.77;85.33
73821;BME280;62150;43.582;1.456;2023-03-23T13:42:24;99492.47;;;24.24;87.72
73821;BME280;62150;43.582;1.456;2023-03-23T13:45:05;99485.59;;;24.64;86.90
73821;BME280;62150;43.582;1.456;2023-03-23T13:47:38;99480.50;;;24.30;86.02
73821;BME280;62150;43.582;1.456;2023-03-23T13:50:12;99472.56;;;23.97;91.94
73821;BME280;62150;43.582;1.456;2023-03-23T13:52:53;99476.88;;;24.63;87.26
73821;BME280;62150;43.582;1.456;2023-03-23T13:55:36;99473.25;;;24.81;85.93
73821;BME280;62150;43.582;1.456;2023-03-23T13:58:23;99469.78;;;25.44;80.33
73821;BME280;62150;43.582;1.456;2023-03-23T14:01:08;99464.41;;;24.65;85.58
73821;BME280;62150;43.582;1.456;2023-03-23T14:03:38;99468.53;;;25.31;81.64
73821;BME280;62150;43.582;1.456;2023-03-23T14:06:11;99467.81;;;25.85;76.01
73821;BME280;62150;43.582;1.456;2023-03-23T14:08:42;99464.06;;;24.60;82.16
73821;BME280;62150;43.582;1.456;2023-03-23T14:11:13;99461.84;;;25.21;78.72
73821;BME280;62150;43.582;1.456;2023-03-23T14:13:46;99452.28;;;24.32;86.50
73821;BME280;62150;43.582;1.456;2023-03-23T14:16:17;99454.56;;;25.31;78.71
73821;BME280;62150;43.582;1.456;2023-03-23T14:18:54;99443.09;;;25.24;81.53
73821;BME280;62150;43.582;1.456;2023-03-23T14:21:31;99442.13;;;24.45;86.80
73821;BME280;62150;43.582;1.456;2023-03-23T14:24:01;99446.81;;;24.90;83.73
73821;BME280;62150;43.582;1.456;2023-03-23T14:26:32;99437.00;;;24.03;91.66
73821;BME280;62150;43.582;1.456;2023-03-23T14:29:02;99438.38;;;23.49;95.23
73821;BME280;62150;43.582;1.456;2023-03-23T14:31:31;99430.75;;;23.21;96.25
73821;BME280;62150;43.582;1.456;2023-03-23T14:34:03;99422.91;;;24.12;89.51
73821;BME280;62150;43.582;1.456;2023-03-23T14:36:33;99423.00;;;23.54;92.27
73821;BME280;62150;43.582;1.456;2023-03-23T14:39:06;99421.41;;;23.27;94.96
73821;BME280;62150;43.582;1.456;2023-03-23T14:41:39;99420.28;;;22.44;99.08
73821;BME280;62150;43.582;1.456;2023-03-23T14:44:12;99411.03;;;23.59;93.24
73821;BME280;62150;43.582;1.456;2023-03-23T14:46:42;99420.69;;;23.59;93.96
73821;BME280;62150;43.582;1.456;2023-03-23T14:49:14;99411.16;;;22.73;96.46
73821;BME280;62150;43.582;1.456;2023-03-23T14:51:53;99415.13;;;23.54;93.46
73821;BME280;62150;43.582;1.456;2023-03-23T14:54:23;99415.28;;;23.10;97.12
73821;BME280;62150;43.582;1.456;2023-03-23T14:56:52;99397.22;;;22.99;96.72
73821;BME280;62150;43.582;1.456;2023-03-23T14:59:23;99401.47;;;22.22;100.00
73821;BME280;62150;43.582;1.456;2023-03-23T15:01:51;99400.00;;;22.71;100.00
73821;BME280;62150;43.582;1.456;2023-03-23T15:04:20;99400.56;;;22.57;100.00
73821;BME280;62150;43.582;1.456;2023-03-23T15:06:51;99394.34;;;22.32;100.00
73821;BME280;62150;43.582;1.456;2023-03-23T15:09:23;99386.84;;;22.81;97.72
73821;BME280;62150;43.582;1.456;2023-03-23T15:11:54;99406.16;;;22.62;99.25
73821;BME280;62150;43.582;1.456;2023-03-23T15:14:26;99409.53;;;22.55;100.00
73821;BME280;62150;43.582;1.456;2023-03-23T15:16:56;99401.06;;;22.79;99.54
73821;BME280;62150;43.582;1.456;2023-03-23T15:19:27;99399.69;;;22.74;99.84
73821;BME280;62150;43.582;1.456;2023-03-23T15:21:56;99399.72;;;22.49;100.00
73821;BME280;62150;43.582;1.456;2023-03-23T15:24:33;99394.50;;;22.57;100.00
73821;BME280;62150;43.582;1.456;2023-03-23T15:27:14;99391.16;;;23.49;94.37
73821;BME280;62150;43.582;1.456;2023-03-23T15:29:51;99395.41;;;23.42;95.75
73821;BME280;62150;43.582;1.456;2023-03-23T15:32:24;99405.50;;;23.20;95.59
73821;BME280;62150;43.582;1.456;2023-03-23T15:34:52;99403.78;;;23.03;97.40
73821;BME280;62150;43.582;1.456;2023-03-23T15:37:23;99407.63;;;22.83;97.57
73821;BME280;62150;43.582;1.456;2023-03-23T15:39:51;99409.19;;;23.01;98.18
73821;BME280;62150;43.582;1.456;2023-03-23T15:42:26;99415.81;;;22.88;97.47
73821;BME280;62150;43.582;1.456;2023-03-23T15:45:16;99410.13;;;21.87;100.00
73821;BME280;62150;43.582;1.456;2023-03-23T15:47:48;99412.75;;;21.87;100.00
73821;BME280;62150;43.582;1.456;2023-03-23T15:50:17;99407.72;;;22.03;100.00
73821;BME280;62150;43.582;1.456;2023-03-23T15:52:46;99409.09;;;22.59;100.00
73821;BME280;62150;43.582;1.456;2023-03-23T15:55:23;99420.16;;;22.53;100.00
73821;BME280;62150;43.582;1.456;2023-03-23T15:57:51;99415.34;;;21.52;100.00
73821;BME280;62150;43.582;1.456;2023-03-23T16:00:23;99414.22;;;21.54;100.00
73821;BME280;62150;43.582;1.456;2023-03-23T16:02:55;99419.59;;;20.98;100.00
73821;BME280;62150;43.582;1.456;2023-03-23T16:05:24;99403.47;;;21.39;100.00
73821;BME280;62150;43.582;1.456;2023-03-23T16:07:51;99410.25;;;21.32;100.00
73821;BME280;62150;43.582;1.456;2023-03-23T16:10:21;99403.66;;;21.73;100.00
73821;BME280;62150;43.582;1.456;2023-03-23T16:12:49;99401.53;;;21.42;100.00
73821;BME280;62150;43.582;1.456;2023-03-23T16:15:17;99399.63;;;21.06;100.00
73821;BME280;62150;43.582;1.456;2023-03-23T16:17:46;99403.31;;;21.41;100.00
73821;BME280;62150;43.582;1.456;2023-03-23T16:20:15;99406.41;;;21.72;100.00
73821;BME280;62150;43.582;1.456;2023-03-23T16:22:44;99411.66;;;21.27;100.00
73821;BME280;62150;43.582;1.456;2023-03-23T16:25:13;99400.34;;;21.54;100.00
73821;BME280;62150;43.582;1.456;2023-03-23T16:27:42;99405.84;;;21.51;100.00
73821;BME280;62150;43.582;1.456;2023-03-23T16:30:17;99396.84;;;21.45;100.00
73821;BME280;62150;43.582;1.456;2023-03-23T16:32:46;99401.47;;;21.24;100.00
73821;BME280;62150;43.582;1.456;2023-03-23T16:35:15;99402.00;;;21.27;100.00
73821;BME280;62150;43.582;1.456;2023-03-23T16:37:46;99407.44;;;21.44;100.00
73821;BME280;62150;43.582;1.456;2023-03-23T16:40:15;99396.03;;;22.16;100.00
73821;BME280;62150;43.582;1.456;2023-03-23T16:42:43;99406.78;;;22.30;100.00
73821;BME280;62150;43.582;1.456;2023-03-23T16:45:11;99399.09;;;22.81;100.00
73821;BME280;62150;43.582;1.456;2023-03-23T16:47:39;99406.91;;;22.29;100.00
73821;BME280;62150;43.582;1.456;2023-03-23T16:50:10;99411.19;;;21.94;100.00
73821;BME280;62150;43.582;1.456;2023-03-23T16:52:39;99408.72;;;21.75;100.00
73821;BME280;62150;43.582;1.456;2023-03-23T16:55:08;99405.03;;;21.50;100.00
73821;BME280;62150;43.582;1.456;2023-03-23T16:57:36;99411.66;;;21.17;100.00
73821;BME280;62150;43.582;1.456;2023-03-23T17:00:05;99417.25;;;20.95;100.00
73821;BME280;62150;43.582;1.456;2023-03-23T17:02:33;99411.34;;;21.30;100.00
73821;BME280;62150;43.582;1.456;2023-03-23T17:05:01;99409.25;;;21.06;100.00
73821;BME280;62150;43.582;1.456;2023-03-23T17:07:30;99412.91;;;21.23;100.00
73821;BME280;62150;43.582;1.456;2023-03-23T17:09:58;99409.44;;;20.48;100.00
73821;BME280;62150;43.582;1.456;2023-03-23T17:12:26;99416.25;;;20.78;100.00
73821;BME280;62150;43.582;1.456;2023-03-23T17:14:53;99412.47;;;20.15;100.00
73821;BME280;62150;43.582;1.456;2023-03-23T17:17:22;99416.31;;;20.30;100.00
73821;BME280;62150;43.582;1.456;2023-03-23T17:19:50;99415.91;;;19.86;100.00
73821;BME280;62150;43.582;1.456;2023-03-23T17:22:18;99404.63;;;20.34;100.00
73821;BME280;62150;43.582;1.456;2023-03-23T17:24:47;99418.50;;;19.77;100.00
73821;BME280;62150;43.582;1.456;2023-03-23T17:27:15;99424.00;;;19.73;100.00
73821;BME280;62150;43.582;1.456;2023-03-23T17:29:43;99430.31;;;19.90;100.00
73821;BME280;62150;43.582;1.456;2023-03-23T17:32:10;99425.38;;;20.16;100.00
73821;BME280;62150;43.582;1.456;2023-03-23T17:34:38;99445.69;;;19.74;100.00
73821;BME280;62150;43.582;1.456;2023-03-23T17:37:06;99449.63;;;19.78;100.00
73821;BME280;62150;43.582;1.456;2023-03-23T17:39:34;99460.34;;;19.85;100.00
73821;BME280;62150;43.582;1.456;2023-03-23T17:42:04;99461.53;;;19.52;100.00
73821;BME280;62150;43.582;1.456;2023-03-23T17:44:32;99468.25;;;19.24;100.00
73821;BME280;62150;43.582;1.456;2023-03-23T17:46:59;99468.22;;;19.14;100.00
73821;BME280;62150;43.582;1.456;2023-03-23T17:49:27;99475.44;;;19.31;100.00
73821;BME280;62150;43.582;1.456;2023-03-23T17:51:56;99485.31;;;19.68;100.00